• Join FlightAware (Why Join?)
  • Login
  • US Flag 
11:30AM EDT


 

Airport Tracker/Info


-or-


 

Live Flight TrackerFlight Track Log ✈ GGN7339 ✈ 10-May-2013 ✈ CYHZ - CYSJ

Flight Track Log - Related Links

Times and Time Zones

All times are in EDT time to prevent confusion due to time zone crossing. See the GGN7339 flight status page for this flight to view local times or setup timezone preferences in your user account.

Time Position Orientation Groundspeed Altitude Reporting Facility
EDT Latitude Longitude Course Direction KTS MPH feet Rate Location/Type
10:43PM 44.8667 -63.5000 285° West 10 12 500  Level Moncton Center
10:44PM 44.8500 -63.5167 215° Southwest 130 150 1,400 1,200 Climbing Moncton Center
10:45PM 44.8500 -63.5500 270° West 160 184 2,900 1,560 Climbing Moncton Center
10:46PM 44.8833 -63.6167 305° West 180 207 4,600 1,620 Climbing Moncton Center
10:47PM 44.9167 -63.6667 313° West 190 219 6,200 1,560 Climbing Moncton Center
10:48PM 44.9667 -63.7167 325° Northwest 200 230 7,800 1,500 Climbing Moncton Center
10:49PM 45.0000 -63.7667 313° West 200 230 9,200 1,380 Climbing Moncton Center
10:50PM 44.9759 -64.0035 285° West  Level Estimated
10:50PM 45.0333 -63.8333 305° West 200 230 10,600  Level Moncton Center
10:51PM 45.0500 -63.9000 290° West 200 230 11,700 660 Climbing Moncton Center
10:52PM 45.0667 -63.9667 290° West 220 253 12,000 180 Climbing Moncton Center
10:53PM 45.1000 -64.0667 295° West 230 265 12,100  Climbing Moncton Center
10:54PM 45.1167 -64.1667 283° West 240 276 12,100  Level Moncton Center
10:55PM 45.1333 -64.2500 286° West 250 288 12,100  Level Moncton Center
10:56PM 45.1667 -64.3500 295° West 250 288 12,100 -60 Level Moncton Center
10:57PM 45.1833 -64.4500 283° West 240 276 12,000 -60 Descending Moncton Center
10:58PM 45.2000 -64.5167 290° West 230 265 12,000  Level Moncton Center
10:59PM 45.2333 -64.5833 305° West 210 242 12,100  Climbing Moncton Center
11:00PM 45.2500 -64.6833 283° West 200 230 12,100  Level Moncton Center
11:01PM 45.2667 -64.7500 290° West 200 230 12,100  Level Moncton Center
11:02PM 45.2833 -64.8333 286° West 200 230 12,100  Level Moncton Center
11:03PM 45.3000 -64.9000 290° West 200 230 12,100  Level Moncton Center
11:04PM 45.3333 -64.9667 305° West 200 230 12,100 -300 Level Moncton Center
11:05PM 45.3500 -65.0667 283° West 240 276 11,500 -960 Descending Moncton Center
11:06PM 45.3667 -65.1667 283° West 260 299 10,200 -1,500 Descending Moncton Center
11:07PM 45.4000 -65.2500 300° West 260 299 8,500 -1,680 Descending Moncton Center
11:08PM 45.4167 -65.3500 283° West 240 276 6,900 -1,500 Descending Moncton Center
11:09PM 45.4500 -65.4167 305° West 210 242 5,500 -1,020 Descending Moncton Center
11:10PM 45.4667 -65.5000 286° West 190 219 4,900 -600 Descending Moncton Center
11:11PM 45.4833 -65.5667 290° West 170 196 4,300 -420 Descending Moncton Center
11:12PM 45.4833 -65.6167 270° West 170 196 4,100 -120 Descending Moncton Center
11:13PM 45.5000 -65.6833 290° West 160 184 4,100  Level Moncton Center
11:14PM 45.5333 -65.7167 325° Northwest 160 184 4,100  Level Moncton Center
11:15PM 45.5833 -65.6667 35° Northeast 170 196 4,100  Level Moncton Center
11:16PM 45.6167 -65.6333 35° Northeast 170 196 4,100  Level Moncton Center
11:17PM 45.6500 -65.6000 35° Northeast 170 196 4,100 -60 Level Moncton Center
11:18PM 45.6500 -65.5500 90° East 160 184 4,000  Descending Moncton Center
11:19PM 45.6167 -65.6000 226° Southwest 160 184 4,100  Climbing Moncton Center
11:20PM 45.5833 -65.6333 215° Southwest 160 184 4,100  Level Moncton Center
11:21PM 45.5500 -65.6667 215° Southwest 160 184 4,100 -60 Level Moncton Center
11:23PM 45.4922 -65.7170 211° Southwest  Level FlightAware Approximate
11:23PM 45.4667 -65.7333 211° Southwest 160 184 4,000  Level Moncton Center
11:24PM 45.4333 -65.7833 226° Southwest 170 196 3,300 -780 Descending Moncton Center
11:25PM 45.4000 -65.8000 199° South 160 184 2,500 -900 Descending Moncton Center
11:26PM 45.3667 -65.8333 215° Southwest 150 173 1,600 -660 Descending Moncton Center
11:27PM 45.3333 -65.8500 199° South 150 173 1,200 -540 Descending Moncton Center
11:28PM 45.3000 -65.9000 227° Southwest 140 161 600 -600 Descending Moncton Center